^^
Grace C. Lehan Memorial Weather Station Historical Data
Daily Summary for January 25, 2022 Units:  Metric    English   Both
Daily Weekly Monthly Yearly
  High: Low: Average:
Temperature: 6.5 °C -1.8 °C 1.3 °C
Dew Point: 0.5 °C -7.9 °C -2.1 °C
Humidity: 94.9% 54% 80%
Wind Speed: 14.8km/h 0km/h 1.8km/h
Wind Gust: 29km/h - -
Wind- - WNW
Pressure: 1017.5 hPa 1009 hPa -
Precipitation: 0.76 mm    
 
 
Tabular Data for January 25, 2022
Time Temperature Dew Point Pressure Wind Wind Speed Wind Gust Humidity Rainfall Rate (Hourly) solar
00:04 -1.8 °C -3.2 °C 1010.7 hPa Calm     90% 0 mm 0 W/m2
00:09 -1.8 °C -3.2 °C 1010.7 hPa Calm     90% 0 mm 0 W/m2
00:14 -1.8 °C -3.2 °C 1010.7 hPa Calm     90% 0 mm 0 W/m2
00:19 -1.8 °C -3.2 °C 1010.7 hPa Calm     90% 0 mm 0 W/m2
00:24 -1.8 °C -3.2 °C 1010.7 hPa Calm     90% 0 mm 0 W/m2
00:29 -1.8 °C -3.1 °C 1010.4 hPa Calm     90.8% 0 mm 0 W/m2
00:34 -1.7 °C -3 °C 1010.4 hPa Calm     91% 0 mm 0 W/m2
00:39 -1.7 °C -3 °C 1010.4 hPa Calm     91% 0 mm 0 W/m2
00:44 -1.7 °C -3 °C 1010.4 hPa Calm     91% 0 mm 0 W/m2
00:49 -1.7 °C -2.9 °C 1010.4 hPa Calm     91% 0 mm 0 W/m2
00:54 -1.7 °C -2.9 °C 1010.4 hPa Calm     91% 0 mm 0 W/m2
00:59 -1.7 °C -2.9 °C 1010 hPa Calm     91% 0 mm 0 W/m2
01:04 -1.7 °C -2.9 °C 1010 hPa Calm     91% 0 mm 0 W/m2
01:09 -1.6 °C -2.9 °C 1010 hPa Calm     91% 0 mm 0 W/m2
01:14 -1.6 °C -2.8 °C 1010 hPa Calm     91% 0 mm 0 W/m2
01:19 -1.6 °C -2.8 °C 1010 hPa Calm     91% 0 mm 0 W/m2
01:24 -1.6 °C -2.8 °C 1010 hPa Calm     91% 0 mm 0 W/m2
01:29 -1.5 °C -2.8 °C 1010 hPa Calm     91% 0 mm 0 W/m2
01:34 -1.5 °C -2.8 °C 1010 hPa Calm     91% 0 mm 0 W/m2
01:39 -1.5 °C -2.7 °C 1010 hPa Calm     91.6% 0 mm 0 W/m2
01:44 -1.4 °C -2.7 °C 1010 hPa Calm     91.1% 0 mm 0 W/m2
01:49 -1.4 °C -2.7 °C 1010 hPa Calm     91% 0 mm 0 W/m2
01:54 -1.4 °C -2.7 °C 1010 hPa Calm     91.4% 0 mm 0 W/m2
01:59 -1.4 °C -2.5 °C 1010 hPa Calm     92% 0 mm 0 W/m2
02:04 -1.3 °C -2.5 °C 1010 hPa Calm     92% 0 mm 0 W/m2
02:09 -1.3 °C -2.4 °C 1009.7 hPa Calm     92% 0 mm 0 W/m2
02:14 -1.3 °C -2.4 °C 1010 hPa Calm     92% 0 mm 0 W/m2
02:19 -1.3 °C -2.4 °C 1010 hPa Calm     92% 0 mm 0 W/m2
02:23 -1.2 °C -2.3 °C 1010 hPa Calm     92% 0 mm 0 W/m2
02:29 -1.2 °C -2.3 °C 1010 hPa Calm     92% 0 mm 0 W/m2
02:34 -1.2 °C -2.3 °C 1010 hPa Calm     92% 0 mm 0 W/m2
02:39 -1.2 °C -2.3 °C 1010 hPa Calm     92% 0 mm 0 W/m2
02:44 -1.2 °C -2.3 °C 1009.7 hPa Calm     92% 0 mm 0 W/m2
02:49 -1.2 °C -2.3 °C 1009.7 hPa Calm     92% 0 mm 0 W/m2
02:54 -1.1 °C -2.2 °C 1009.7 hPa Calm     92% 0 mm 0 W/m2
02:59 -1.1 °C -2.2 °C 1009.7 hPa Calm     92% 0 mm 0 W/m2
03:04 -1.1 °C -2.2 °C 1009.4 hPa Calm     92% 0 mm 0 W/m2
03:09 -1.1 °C -2.2 °C 1009.4 hPa Calm     92% 0 mm 0 W/m2
03:14 -1.1 °C -2.2 °C 1009.4 hPa Calm     92% 0 mm 0 W/m2
03:19 -1.1 °C -2.2 °C 1009.4 hPa Calm     92% 0 mm 0 W/m2
03:24 -1.1 °C -2.2 °C 1009.4 hPa Calm     92% 0 mm 0 W/m2
03:29 -1.1 °C -2.2 °C 1009.4 hPa Calm     92% 0 mm 0 W/m2
03:34 -1.1 °C -2.2 °C 1009.4 hPa Calm     92% 0 mm 0 W/m2
03:39 -1.1 °C -2.2 °C 1009.4 hPa Calm     92% 0 mm 0 W/m2
03:44 -1.1 °C -2.2 °C 1009.4 hPa Calm     92% 0 mm 0 W/m2
03:49 -1.1 °C -2.2 °C 1009.4 hPa Calm     92% 0 mm 0 W/m2
03:54 -1.1 °C -2.2 °C 1009.4 hPa Calm     92% 0 mm 0 W/m2
03:59 -1 °C -2.2 °C 1009.4 hPa Calm     92% 0 mm 0 W/m2
04:00 -1 °C -2.1 °C 1009 hPa Calm     92% 0 mm 0 W/m2
04:09 -1 °C -2.1 °C 1009.4 hPa Calm     92% 0 mm 0 W/m2
04:14 -1 °C -2.1 °C 1009.4 hPa Calm     92% 0 mm 0 W/m2
04:19 -1 °C -2.2 °C 1009.4 hPa Calm     92% 0 mm 0 W/m2
04:24 -1.1 °C -2.2 °C 1009.4 hPa Calm     92% 0 mm 0 W/m2
04:29 -1.1 °C -2.2 °C 1009.4 hPa Calm     92% 0 mm 0 W/m2
04:34 -1.1 °C -2.2 °C 1009.4 hPa Calm     92% 0 mm 0 W/m2
04:39 -1.1 °C -2.2 °C 1009.4 hPa Calm     92% 0 mm 0 W/m2
04:44 -1.1 °C -2.1 °C 1009.4 hPa Calm     92.5% 0 mm 0 W/m2
04:49 -1.1 °C -2 °C 1009.4 hPa Calm     93% 0 mm 0 W/m2
04:54 -1 °C -2 °C 1009.4 hPa Calm     93% 0 mm 0 W/m2
04:59 -1 °C -2 °C 1009.4 hPa Calm     93% 0 mm 0 W/m2
05:04 -0.9 °C -1.9 °C 1009.4 hPa Calm     93% 0 mm 0 W/m2
05:09 -0.9 °C -1.9 °C 1009.4 hPa Calm     93% 0 mm 0 W/m2
05:14 -0.9 °C -1.9 °C 1009.7 hPa Calm     93% 0 mm 0 W/m2
05:19 -0.9 °C -1.9 °C 1009.7 hPa Calm     93% 0 mm 0 W/m2
05:24 -0.8 °C -1.8 °C 1009.7 hPa Calm     93% 0 mm 0 W/m2
05:29 -0.8 °C -1.8 °C 1009.7 hPa Calm     93% 0 mm 0 W/m2
05:34 -0.8 °C -1.8 °C 1009.7 hPa Calm     93% 0 mm 0 W/m2
05:39 -0.8 °C -1.8 °C 1009.7 hPa Calm     93% 0 mm 0 W/m2
05:44 -0.8 °C -1.8 °C 1009.7 hPa Calm     93% 0 mm 0 W/m2
05:49 -0.8 °C -1.8 °C 1009.7 hPa Calm     93% 0 mm 0 W/m2
05:54 -0.8 °C -1.8 °C 1009.7 hPa Calm     93% 0 mm 0 W/m2
05:59 -0.8 °C -1.8 °C 1009.7 hPa Calm     93% 0 mm 0 W/m2
06:04 -0.8 °C -1.8 °C 1009.7 hPa Calm     93% 0 mm 0 W/m2
06:09 -0.8 °C -1.8 °C 1009.7 hPa Calm     93% 0 mm 0 W/m2
06:14 -0.8 °C -1.8 °C 1009.7 hPa Calm     93% 0 mm 0 W/m2
06:19 -0.8 °C -1.8 °C 1009.7 hPa Calm     93% 0 mm 0 W/m2
06:24 -0.8 °C -1.8 °C 1010 hPa Calm     93% 0 mm 0 W/m2
06:29 -0.8 °C -1.8 °C 1010 hPa Calm     93% 0 mm 0 W/m2
06:34 -0.8 °C -1.8 °C 1010 hPa Calm     93% 0 mm 0 W/m2
06:39 -0.8 °C -1.8 °C 1010 hPa Calm     93% 0 mm 0 W/m2
06:44 -0.9 °C -1.9 °C 1010 hPa Calm     93% 0 mm 0 W/m2
06:49 -0.9 °C -1.9 °C 1010 hPa Calm     93% 0 mm 0 W/m2
06:54 -0.9 °C -1.9 °C 1010 hPa Calm     93% 0 mm 0 W/m2
06:59 -0.9 °C -1.9 °C 1010 hPa Calm     93% 0 mm 0 W/m2
07:04 -0.9 °C -1.9 °C 1010 hPa Calm     93% 0 mm 0 W/m2
07:09 -0.8 °C -1.8 °C 1010 hPa Calm     93% 0 mm 0 W/m2
07:14 -0.8 °C -1.8 °C 1010 hPa Calm     93% 0 mm 0 W/m2
07:19 -0.9 °C -1.8 °C 1010 hPa Calm     93% 0 mm 0 W/m2
07:24 -0.9 °C -1.9 °C 1010 hPa Calm     93% 0 mm 0 W/m2
07:29 -0.9 °C -1.9 °C 1010.4 hPa Calm     93% 0 mm 5 W/m2
07:34 -0.9 °C -1.9 °C 1010.4 hPa Calm     93% 0 mm 5 W/m2
07:39 -0.9 °C -1.9 °C 1010.4 hPa Calm     93% 0 mm 5 W/m2
07:44 -0.9 °C -1.9 °C 1010.4 hPa Calm     93% 0 mm 7 W/m2
07:49 -0.9 °C -1.9 °C 1010.7 hPa Calm     93% 0 mm 7 W/m2
07:54 -0.9 °C -1.8 °C 1010.7 hPa Calm     93% 0 mm 11 W/m2
07:59 -0.8 °C -1.8 °C 1010.7 hPa Calm     93% 0 mm 14 W/m2
08:00 -0.8 °C -1.8 °C 1010.7 hPa Calm     93% 0 mm 14 W/m2
08:09 -0.8 °C -1.8 °C 1010.7 hPa Calm     93% 0 mm 16 W/m2
08:14 -0.7 °C -1.7 °C 1010.7 hPa Calm     93% 0 mm 16 W/m2
08:19 -0.7 °C -1.7 °C 1011.1 hPa Calm     93% 0 mm 19 W/m2
08:24 -0.6 °C -1.6 °C 1011.1 hPa Calm     93% 0 mm 23 W/m2
08:29 -0.5 °C -1.4 °C 1011.1 hPa Calm     93.1% 0 mm 40 W/m2
08:34 -0.4 °C -1.2 °C 1011.4 hPa Calm     94% 0 mm 47 W/m2
08:39 -0.3 °C -1.1 °C 1011.4 hPa Calm     94% 0 mm 35 W/m2
08:44 -0.1 °C -0.9 °C 1011.4 hPa Calm     94% 0 mm 33 W/m2
08:49 0 °C -0.7 °C 1011.4 hPa Calm     94.9% 0 mm 44 W/m2
08:54 0.2 °C -0.7 °C 1011.4 hPa Calm     94% 0 mm 46 W/m2
08:59 0.3 °C -0.6 °C 1011.4 hPa Calm     94% 0 mm 46 W/m2
09:04 0.4 °C -0.4 °C 1011.4 hPa Calm     94% 0 mm 46 W/m2
09:09 0.6 °C -0.2 °C 1011.7 hPa Calm     94% 0 mm 70 W/m2
09:14 0.8 °C 0 °C 1011.7 hPa Calm     94% 0 mm 100 W/m2
09:19 1.1 °C 0.2 °C 1011.7 hPa Calm     94% 0 mm 77 W/m2
09:24 1.3 °C 0.4 °C 1011.7 hPa Calm     93.8% 0 mm 35 W/m2
09:29 1.4 °C 0.4 °C 1012.1 hPa Calm     93% 0 mm 51 W/m2
09:34 1.5 °C 0.4 °C 1012.1 hPa Calm     92.6% 0 mm 51 W/m2
09:39 1.5 °C 0.3 °C 1012.1 hPa Calm     92% 0 mm 51 W/m2
09:44 1.6 °C 0.3 °C 1012.4 hPa Calm     91.1% 0 mm 54 W/m2
09:49 1.6 °C 0.3 °C 1012.4 hPa Calm     91% 0 mm 54 W/m2
09:54 1.6 °C 0.2 °C 1012.1 hPa Calm     90.3% 0 mm 74 W/m2
09:59 1.6 °C 0.1 °C 1012.1 hPa Calm     90% 0 mm 104 W/m2
10:04 1.6 °C 0.2 °C 1012.4 hPa Calm     90% 0 mm 107 W/m2
10:09 1.7 °C 0.3 °C 1012.4 hPa Calm     90% 0 mm 116 W/m2
10:14 1.8 °C 0.4 °C 1012.4 hPa Calm   1.6 km/h 90% 0 mm 128 W/m2
10:19 1.9 °C 0.3 °C 1012.4 hPa South 0.6 km/h 4.8 km/h 89.1% 0.25 mm 141 W/m2
10:24 2.1 °C 0.4 °C 1012.4 hPa South 1 km/h 8 km/h 88.3% 0.25 mm 141 W/m2
10:29 2.2 °C 0.3 °C 1012.4 hPa WSW 1 km/h 11.3 km/h 87.4% 0.25 mm 134 W/m2
10:34 2.3 °C 0.3 °C 1012.8 hPa WSW 0.8 km/h 11.3 km/h 86% 0.25 mm 137 W/m2
10:39 2.5 °C 0.2 °C 1012.8 hPa WSW 1.3 km/h 8 km/h 85.1% 0.25 mm 174 W/m2
10:44 2.6 °C 0.2 °C 1012.8 hPa WSW 0.8 km/h 8 km/h 84% 0.51 mm 155 W/m2
10:49 2.7 °C 0.2 °C 1012.8 hPa WSW 1.8 km/h 8 km/h 83.3% 0.51 mm 153 W/m2
10:54 2.8 °C 0.1 °C 1013.1 hPa WSW 1.1 km/h 8 km/h 82.3% 0.51 mm 141 W/m2
10:59 2.9 °C 0.2 °C 1012.8 hPa WSW 0.2 km/h 8 km/h 82% 0.51 mm 130 W/m2
11:04 3 °C 0.1 °C 1012.8 hPa SW 1.1 km/h 11.3 km/h 81.2% 0.51 mm 162 W/m2
11:09 3.1 °C 0.1 °C 1012.8 hPa Calm   11.3 km/h 81% 0.76 mm 163 W/m2
11:14 3.2 °C 0.1 °C 1012.8 hPa WSW 1.6 km/h 11.3 km/h 80.2% 0.76 mm 190 W/m2
11:19 3.2 °C 0.1 °C 1012.8 hPa WSW 0.5 km/h 11.3 km/h 80% 0.76 mm 202 W/m2
11:24 3.4 °C 0.3 °C 1012.4 hPa WSW 1.9 km/h 11.3 km/h 80.5% 0.76 mm 197 W/m2
11:29 3.5 °C 0.4 °C 1012.4 hPa West 2.3 km/h 11.3 km/h 80% 0.76 mm 214 W/m2
11:34 3.6 °C 0.3 °C 1012.4 hPa WNW 1.9 km/h 11.3 km/h 78.8% 0.76 mm 197 W/m2
11:39 3.7 °C 0.2 °C 1012.4 hPa WSW 1.1 km/h 8 km/h 78% 0.51 mm 223 W/m2
11:44 3.8 °C 0.3 °C 1012.4 hPa WSW 1 km/h 8 km/h 78% 0.51 mm 214 W/m2
11:49 3.9 °C 0.4 °C 1012.1 hPa WSW 1 km/h 8 km/h 77.4% 0.51 mm 271 W/m2
11:54 4.1 °C 0.4 °C 1012.1 hPa West 1.8 km/h 8 km/h 77% 0.51 mm 195 W/m2
11:59 4.3 °C 0.3 °C 1012.1 hPa West 4.8 km/h 11.3 km/h 75.6% 0.51 mm 204 W/m2
12:00 4.3 °C 0.2 °C 1012.1 hPa WNW 4.8 km/h 11.3 km/h 75% 0.51 mm 156 W/m2
12:09 4.4 °C 0.2 °C 1012.1 hPa WNW 1.1 km/h 4.8 km/h 74.1% 0.51 mm 192 W/m2
12:14 4.7 °C 0.4 °C 1012.1 hPa WNW 3.2 km/h 11.3 km/h 74% 0.51 mm 388 W/m2
12:19 4.8 °C 0.5 °C 1012.1 hPa WNW 2.7 km/h 11.3 km/h 73.5% 0.51 mm 151 W/m2
12:24 5.1 °C 0.5 °C 1012.1 hPa West 3.7 km/h 11.3 km/h 72.4% 0.51 mm 179 W/m2
12:29 5.2 °C 0.3 °C 1012.1 hPa WSW 1.9 km/h 11.3 km/h 70.6% 0.51 mm 186 W/m2
12:34 5.3 °C 0.3 °C 1012.1 hPa WSW 0.3 km/h 11.3 km/h 70.4% 0.51 mm 128 W/m2
12:39 5.4 °C 0.4 °C 1011.7 hPa WSW 1.6 km/h 8 km/h 70.1% 0 mm 132 W/m2
12:44 5.5 °C 0.3 °C 1011.7 hPa WSW 1.1 km/h 8 km/h 69.3% 0 mm 225 W/m2
12:49 5.6 °C 0.3 °C 1012.1 hPa WSW 0.6 km/h 8 km/h 69% 0 mm 221 W/m2
12:54 5.7 °C 0.3 °C 1012.1 hPa West 2.7 km/h 8 km/h 68.2% 0 mm 192 W/m2
12:59 5.7 °C 0.3 °C 1012.1 hPa West 1.6 km/h 8 km/h 68.2% 0 mm 246 W/m2
13:04 5.7 °C 0.1 °C 1011.7 hPa WNW 3.9 km/h 12.9 km/h 66.9% 0 mm 172 W/m2
13:09 5.8 °C -0.1 °C 1011.7 hPa WNW 3.5 km/h 12.9 km/h 66.3% 0 mm 97 W/m2
13:14 5.8 °C -0.1 °C 1011.7 hPa WNW 1.6 km/h 12.9 km/h 66% 0 mm 193 W/m2
13:19 5.8 °C -0.3 °C 1011.7 hPa WNW 4.2 km/h 12.9 km/h 64.4% 0 mm 171 W/m2
13:24 5.9 °C -0.4 °C 1011.7 hPa West 3.7 km/h 12.9 km/h 64% 0 mm 169 W/m2
13:29 6.1 °C -0.6 °C 1011.7 hPa WNW 4.2 km/h 12.9 km/h 62.6% 0 mm 304 W/m2
13:34 6.2 °C -1 °C 1011.7 hPa WNW 4.8 km/h 14.5 km/h 59.9% 0 mm 181 W/m2
13:39 6.3 °C -0.5 °C 1011.7 hPa NW 2.4 km/h 14.5 km/h 61.5% 0 mm 127 W/m2
13:44 6.4 °C -0.6 °C 1011.7 hPa WNW 2.4 km/h 14.5 km/h 61.1% 0 mm 214 W/m2
13:49 6.4 °C -0.7 °C 1011.7 hPa West 0.2 km/h 14.5 km/h 60.2% 0 mm 251 W/m2
13:54 6.5 °C -0.8 °C 1011.7 hPa WNW 7.9 km/h 17.7 km/h 59.8% 0 mm 239 W/m2
13:59 6.5 °C -1.3 °C 1011.7 hPa WNW 7.2 km/h 17.7 km/h 57.6% 0 mm 213 W/m2
14:04 6.4 °C -1.6 °C 1011.7 hPa WNW 11.6 km/h 20.9 km/h 56.7% 0 mm 274 W/m2
14:09 6.3 °C -2.1 °C 1012.1 hPa WNW 12.6 km/h 29 km/h 55.3% 0 mm 163 W/m2
14:14 6.1 °C -2.3 °C 1012.1 hPa WNW 12.2 km/h 29 km/h 54.6% 0 mm 285 W/m2
14:19 6 °C -2.3 °C 1012.1 hPa WNW 11.3 km/h 29 km/h 55.2% 0 mm 251 W/m2
14:24 5.9 °C -2.5 °C 1012.4 hPa WNW 14.8 km/h 29 km/h 54.8% 0 mm 165 W/m2
14:29 5.8 °C -2.8 °C 1012.4 hPa West 4.3 km/h 29 km/h 54% 0 mm 165 W/m2
14:34 5.7 °C -2.6 °C 1012.4 hPa WNW 8.9 km/h 29 km/h 55.2% 0 mm 151 W/m2
14:39 5.7 °C -2.8 °C 1012.4 hPa WNW 5.8 km/h 20.9 km/h 54.5% 0 mm 72 W/m2
14:44 5.7 °C -2.7 °C 1012.4 hPa West 5 km/h 20.9 km/h 55% 0 mm 97 W/m2
14:49 5.6 °C -2.7 °C 1012.8 hPa WNW 2.1 km/h 20.9 km/h 55% 0 mm 97 W/m2
14:54 5.6 °C -2.7 °C 1012.8 hPa WNW 7.4 km/h 20.9 km/h 55% 0 mm 193 W/m2
14:59 5.5 °C -2.8 °C 1012.8 hPa WNW 8.2 km/h 20.9 km/h 55% 0 mm 144 W/m2
15:04 5.4 °C -3 °C 1012.8 hPa WNW 10.5 km/h 24.1 km/h 54.5% 0 mm 56 W/m2
15:09 5.3 °C -3 °C 1012.8 hPa West 7.4 km/h 24.1 km/h 54.8% 0 mm 46 W/m2
15:14 5.2 °C -2.9 °C 1013.1 hPa WNW 4 km/h 24.1 km/h 55.6% 0 mm 49 W/m2
15:19 5.1 °C -2.7 °C 1013.1 hPa WNW 7.1 km/h 24.1 km/h 56.8% 0 mm 72 W/m2
15:24 5 °C -2.6 °C 1013.1 hPa NW 9.7 km/h 24.1 km/h 57.9% 0 mm 70 W/m2
15:29 4.8 °C -2.7 °C 1013.4 hPa WNW 8 km/h 24.1 km/h 58.2% 0 mm 72 W/m2
15:34 4.7 °C -2.5 °C 1013.4 hPa WNW 10.3 km/h 24.1 km/h 59.5% 0 mm 70 W/m2
15:39 4.6 °C -2.6 °C 1013.4 hPa WNW 2.1 km/h 24.1 km/h 59.7% 0 mm 42 W/m2
15:44 4.5 °C -2.5 °C 1013.4 hPa WNW 3.7 km/h 24.1 km/h 60.5% 0 mm 39 W/m2
15:49 4.3 °C -2.7 °C 1013.4 hPa WNW 10.1 km/h 27.4 km/h 60.1% 0 mm 47 W/m2
15:54 4.2 °C -2.8 °C 1013.8 hPa WNW 4 km/h 27.4 km/h 60.5% 0 mm 49 W/m2
15:59 4.1 °C -2.7 °C 1013.8 hPa NW 4.5 km/h 27.4 km/h 61.3% 0 mm 42 W/m2
16:00 4 °C -2.8 °C 1013.8 hPa WNW 6.4 km/h 27.4 km/h 61% 0 mm 26 W/m2
16:09 3.8 °C -3.5 °C 1013.8 hPa WNW 8.4 km/h 27.4 km/h 59% 0 mm 23 W/m2
16:14 3.6 °C -3.8 °C 1013.8 hPa WNW 8.9 km/h 27.4 km/h 58.5% 0 mm 21 W/m2
16:19 3.4 °C -3.8 °C 1014.1 hPa WNW 6.1 km/h 27.4 km/h 59% 0 mm 18 W/m2
16:24 3.3 °C -3.8 °C 1014.1 hPa WNW 2.6 km/h 27.4 km/h 59.5% 0 mm 14 W/m2
16:29 3.2 °C -3.8 °C 1014.1 hPa WNW 0.2 km/h 27.4 km/h 60% 0 mm 14 W/m2
16:34 3.1 °C -3.9 °C 1014.1 hPa WNW 3.9 km/h 27.4 km/h 60.4% 0 mm 14 W/m2
16:39 2.9 °C -3.8 °C 1014.1 hPa WNW 5.6 km/h 17.7 km/h 61% 0 mm 16 W/m2
16:44 2.8 °C -3.9 °C 1014.4 hPa WNW 3.5 km/h 17.7 km/h 61.2% 0 mm 16 W/m2
16:49 2.8 °C -3.7 °C 1014.4 hPa WNW 3.7 km/h 17.7 km/h 62% 0 mm 9 W/m2
16:54 2.7 °C -3.6 °C 1014.4 hPa WNW 4 km/h 17.7 km/h 62.8% 0 mm 7 W/m2
16:59 2.6 °C -3.5 °C 1014.8 hPa NW 6 km/h 17.7 km/h 63.8% 0 mm 0 W/m2
17:04 2.5 °C -3.8 °C 1014.8 hPa NW 6.9 km/h 24.1 km/h 63.3% 0 mm 0 W/m2
17:09 2.4 °C -3.9 °C 1015.1 hPa WNW 3.2 km/h 24.1 km/h 63.2% 0 mm 0 W/m2
17:14 2.3 °C -3.9 °C 1015.1 hPa NW 4.5 km/h 24.1 km/h 63.3% 0 mm 0 W/m2
17:19 2.2 °C -4.1 °C 1015.1 hPa NW 3.7 km/h 24.1 km/h 63.4% 0 mm 0 W/m2
17:24 2.1 °C -4 °C 1015.5 hPa NNW 1.9 km/h 24.1 km/h 64% 0 mm 0 W/m2
17:29 1.9 °C -4.3 °C 1015.5 hPa NW 3.7 km/h 24.1 km/h 63% 0 mm 0 W/m2
17:34 1.8 °C -4.5 °C 1015.8 hPa WNW 3.4 km/h 24.1 km/h 63% 0 mm 0 W/m2
17:39 1.7 °C -4.7 °C 1015.8 hPa NW 3.9 km/h 17.7 km/h 62.8% 0 mm 0 W/m2
17:44 1.5 °C -5 °C 1015.8 hPa WNW 1.8 km/h 17.7 km/h 62% 0 mm 0 W/m2
17:49 1.3 °C -5.2 °C 1016.1 hPa WNW 2.4 km/h 17.7 km/h 61.8% 0 mm 0 W/m2
17:54 1.2 °C -5.5 °C 1016.1 hPa WNW 4.3 km/h 17.7 km/h 61% 0 mm 0 W/m2
17:59 1.1 °C -5.7 °C 1016.1 hPa NW 2.7 km/h 17.7 km/h 60.7% 0 mm 0 W/m2
18:04 1 °C -5.9 °C 1016.1 hPa WNW 4 km/h 19.3 km/h 59.7% 0 mm 0 W/m2
18:09 0.9 °C -6 °C 1016.1 hPa WNW 2.3 km/h 19.3 km/h 59.8% 0 mm 0 W/m2
18:14 0.8 °C -6.2 °C 1016.5 hPa WNW 1 km/h 19.3 km/h 59.1% 0 mm 0 W/m2
18:19 0.8 °C -6.3 °C 1016.5 hPa WNW 0.2 km/h 19.3 km/h 59% 0 mm 0 W/m2
18:24 0.7 °C -6.4 °C 1016.5 hPa WNW 0.8 km/h 19.3 km/h 59% 0 mm 0 W/m2
18:29 0.6 °C -6.5 °C 1016.5 hPa NW 1.1 km/h 19.3 km/h 58.8% 0 mm 0 W/m2
18:34 0.5 °C -6.8 °C 1016.5 hPa NNW 0.2 km/h 19.3 km/h 58% 0 mm 0 W/m2
18:39 0.4 °C -6.9 °C 1016.8 hPa NNW 1.3 km/h 8 km/h 58% 0 mm 0 W/m2
18:44 0.3 °C -7.1 °C 1016.8 hPa NNW 0.3 km/h 8 km/h 57.6% 0 mm 0 W/m2
18:49 0.3 °C -7.3 °C 1016.8 hPa NNW 2.1 km/h 8 km/h 56.9% 0 mm 0 W/m2
18:54 0.2 °C -7.5 °C 1017.2 hPa NW 1.3 km/h 8 km/h 56% 0 mm 0 W/m2
18:59 0.2 °C -7.6 °C 1017.2 hPa NW 1.3 km/h 9.7 km/h 56% 0 mm 0 W/m2
19:04 0.1 °C -7.6 °C 1017.2 hPa NW 1.9 km/h 9.7 km/h 56% 0 mm 0 W/m2
19:09 0.1 °C -7.7 °C 1017.2 hPa NW 1.8 km/h 6.4 km/h 55.9% 0 mm 0 W/m2
19:13 0 °C -7.9 °C 1017.5 hPa NW 1.8 km/h 6.4 km/h 55% 0 mm 0 W/m2
Hartford County Weather
Compliments of Weather Underground - 4 mb